Time;durP1;ratioP1;P1;durP2;ratioP2;P2;SDS_P1;SDS_P2;PMS_P1;PMS_P2;Temp;Humidity;BMP_temperature;BMP_pressure;BME280_temperature;BME280_humidity;BME280_pressure;Samples;Min_cycle;Max_cycle;Signal;HPM_P1;HPM_P2
2022/08/20 20:22:23;;;;;;;7.23;6.03;;;22.50;99.90;;;;;;5676776;22;8026512;-76
2022/08/20 20:25:07;;;;;;;10.02;6.78;;;22.50;99.90;;;;;;6414545;23;20016;-75
2022/08/20 20:27:39;;;;;;;7.50;5.85;;;22.20;99.90;;;;;;6435480;23;20304;-74
2022/08/20 20:30:11;;;;;;;7.50;5.40;;;22.40;99.90;;;;;;6461915;23;20057;-74
2022/08/20 20:32:48;;;;;;;7.45;5.47;;;22.10;99.90;;;;;;6461890;23;20004;-74
2022/08/20 20:35:29;;;;;;;6.88;5.20;;;22.00;99.90;;;;;;6434411;23;20046;-74
2022/08/20 20:38:09;;;;;;;7.68;5.72;;;22.10;99.90;;;;;;6435160;23;20008;-74
2022/08/20 20:40:50;;;;;;;9.15;6.10;;;22.00;99.90;;;;;;6434532;23;20473;-75
2022/08/20 20:43:25;;;;;;;8.48;6.40;;;22.10;99.90;;;;;;6462221;23;19996;-74
2022/08/20 20:46:15;;;;;;;8.73;5.95;;;22.10;99.90;;;;;;6461989;23;20027;-74
2022/08/20 20:48:49;;;;;;;9.75;5.80;;;22.10;99.90;;;;;;6462168;23;20078;-74
2022/08/20 20:51:33;;;;;;;8.20;5.85;;;22.00;99.90;;;;;;6462085;23;19996;-74
2022/08/20 20:54:26;;;;;;;8.30;5.70;;;22.00;99.90;;;;;;6430300;23;20036;-74
2022/08/20 20:57:01;;;;;;;8.93;5.63;;;22.20;99.90;;;;;;6429948;23;20075;-75
2022/08/20 20:59:34;;;;;;;10.30;6.78;;;22.20;99.90;;;;;;6430012;23;20302;-75
2022/08/20 21:02:05;;;;;;;7.28;5.97;;;22.10;99.90;;;;;;6430094;23;20087;-74
2022/08/20 21:04:36;;;;;;;12.38;6.07;;;22.20;99.90;;;;;;6430107;23;20039;-74
2022/08/20 21:07:09;;;;;;;7.55;5.57;;;22.30;99.90;;;;;;6430268;23;20447;-75
2022/08/20 21:09:41;;;;;;;7.75;5.35;;;22.30;99.90;;;;;;6429590;23;20421;-75
2022/08/20 21:12:12;;;;;;;8.52;6.55;;;22.00;99.90;;;;;;6403611;23;20092;-75
2022/08/20 21:14:44;;;;;;;7.47;5.22;;;22.20;99.90;;;;;;6430028;23;20042;-75
2022/08/20 21:17:20;;;;;;;7.72;5.72;;;22.20;99.90;;;;;;6429980;23;20000;-75
2022/08/20 21:19:51;;;;;;;8.55;6.13;;;22.00;99.90;;;;;;6430241;23;20078;-74
2022/08/20 21:22:22;;;;;;;7.15;5.40;;;22.10;99.90;;;;;;6429557;23;20009;-75
2022/08/20 21:24:53;;;;;;;7.57;5.65;;;22.00;99.90;;;;;;6429670;23;20012;-75
2022/08/20 21:27:26;;;;;;;8.75;5.82;;;22.20;99.90;;;;;;6429927;23;20008;-75
2022/08/20 21:29:57;;;;;;;7.70;5.50;;;22.00;99.90;;;;;;6429345;23;20004;-74
2022/08/20 21:32:28;;;;;;;7.10;5.30;;;22.20;99.90;;;;;;6429880;23;20007;-74
2022/08/20 21:34:58;;;;;;;8.55;5.53;;;22.20;99.90;;;;;;6429947;23;20004;-75
2022/08/20 21:37:29;;;;;;;6.80;4.95;;;22.20;99.90;;;;;;6429396;23;20005;-74
2022/08/20 21:40:00;;;;;;;7.93;5.95;;;22.00;99.90;;;;;;6428797;23;20028;-75
2022/08/20 21:42:31;;;;;;;12.43;5.75;;;21.90;99.90;;;;;;6428123;23;20007;-75
2022/08/20 21:45:03;;;;;;;9.13;6.07;;;21.90;99.90;;;;;;6428629;23;20080;-74
2022/08/20 21:47:34;;;;;;;7.47;5.28;;;22.00;99.90;;;;;;6428370;23;20095;-75
2022/08/20 21:50:06;;;;;;;8.65;6.22;;;22.00;99.90;;;;;;6427680;23;20004;-75
2022/08/20 21:52:37;;;;;;;8.95;5.93;;;21.90;99.90;;;;;;6427587;23;20019;-75
2022/08/20 21:55:08;;;;;;;7.78;5.30;;;22.10;99.90;;;;;;6400968;23;20091;-75
2022/08/20 21:57:42;;;;;;;7.50;5.88;;;22.00;99.90;;;;;;6428272;23;20008;-75
2022/08/20 22:00:21;;;;;;;8.27;5.78;;;22.00;99.90;;;;;;6428972;23;20052;-75
2022/08/20 22:02:52;;;;;;;8.18;5.57;;;22.00;99.90;;;;;;6428420;23;20131;-75
2022/08/20 22:05:23;;;;;;;6.15;5.15;;;22.10;99.90;;;;;;6427454;23;20062;-75
2022/08/20 22:07:54;;;;;;;9.32;5.47;;;22.00;99.90;;;;;;6427684;23;20483;-75
2022/08/20 22:10:24;;;;;;;7.10;4.93;;;21.80;99.90;;;;;;6401061;23;20000;-75
2022/08/20 22:12:55;;;;;;;7.05;4.90;;;21.80;99.90;;;;;;6427741;23;20083;-75
2022/08/20 22:15:26;;;;;;;6.97;5.07;;;21.80;99.90;;;;;;6427835;23;20011;-75
2022/08/20 22:17:57;;;;;;;7.05;5.10;;;21.70;99.90;;;;;;6401952;23;20058;-75
2022/08/20 22:20:28;;;;;;;7.50;5.63;;;21.50;99.90;;;;;;6401982;23;20080;-74
2022/08/20 22:23:01;;;;;;;7.90;6.03;;;21.60;99.90;;;;;;6428107;23;20031;-75
2022/08/20 22:25:33;;;;;;;6.22;5.03;;;21.60;99.90;;;;;;6427800;23;20054;-75
2022/08/20 22:28:03;;;;;;;7.55;5.60;;;21.60;99.90;;;;;;6428717;23;20528;-75
2022/08/20 22:30:36;;;;;;;7.65;6.03;;;21.40;99.90;;;;;;6428494;23;19997;-75
2022/08/20 22:33:13;;;;;;;8.30;5.65;;;21.40;99.90;;;;;;6402178;23;20015;-74
2022/08/20 22:35:47;;;;;;;5.45;4.53;;;21.50;99.90;;;;;;6429132;23;20051;-73
2022/08/20 22:38:18;;;;;;;6.22;5.05;;;21.50;99.90;;;;;;6429047;23;20001;-74
2022/08/20 22:40:49;;;;;;;7.07;5.05;;;21.30;99.90;;;;;;6429190;23;20286;-74
2022/08/20 22:43:21;;;;;;;7.80;5.85;;;21.10;99.90;;;;;;6428531;23;20001;-74
2022/08/20 22:45:56;;;;;;;7.68;5.38;;;21.10;99.90;;;;;;6402399;23;20032;-74
2022/08/20 22:48:27;;;;;;;7.07;5.45;;;20.90;99.90;;;;;;6430756;23;20001;-74
2022/08/20 22:50:58;;;;;;;7.60;5.65;;;21.30;99.90;;;;;;6404386;23;20426;-74
2022/08/20 22:53:30;;;;;;;7.20;5.15;;;21.20;99.90;;;;;;6404271;23;20024;-74
2022/08/20 22:56:01;;;;;;;7.90;5.40;;;21.30;99.90;;;;;;6431044;23;20004;-74
2022/08/20 22:58:31;;;;;;;7.32;4.93;;;21.30;99.90;;;;;;6430996;23;20471;-74
2022/08/20 23:01:03;;;;;;;5.43;4.63;;;21.30;99.90;;;;;;6404322;23;20036;-73
2022/08/20 23:03:34;;;;;;;6.90;4.50;;;21.30;99.90;;;;;;6430829;23;19997;-74
2022/08/20 23:06:07;;;;;;;6.22;4.90;;;21.30;99.90;;;;;;6430890;23;20088;-73
2022/08/20 23:08:39;;;;;;;7.25;4.85;;;21.10;99.90;;;;;;6404500;23;20028;-74
2022/08/20 23:11:10;;;;;;;7.00;4.70;;;21.10;99.90;;;;;;6431268;23;20059;-74
2022/08/20 23:13:41;;;;;;;6.43;5.50;;;21.20;99.90;;;;;;6430896;23;20000;-74
2022/08/20 23:16:12;;;;;;;5.72;4.90;;;20.90;99.90;;;;;;6431044;23;20027;-73
2022/08/20 23:18:43;;;;;;;6.68;5.13;;;21.00;99.90;;;;;;6430941;23;20388;-74
2022/08/20 23:21:14;;;;;;;7.97;5.32;;;21.00;99.90;;;;;;6429730;23;20012;-74
2022/08/20 23:23:45;;;;;;;6.03;4.90;;;21.00;99.90;;;;;;6429681;23;20026;-74
2022/08/20 23:26:22;;;;;;;6.68;5.03;;;20.80;99.90;;;;;;6403826;23;20040;-74
2022/08/20 23:29:06;;;;;;;6.85;5.38;;;20.90;99.90;;;;;;6430741;23;20001;-75
2022/08/20 23:31:42;;;;;;;6.63;5.20;;;21.00;99.90;;;;;;6403805;23;20011;-75
2022/08/20 23:34:24;;;;;;;5.40;4.40;;;21.10;99.90;;;;;;6430686;23;20617;-75
2022/08/20 23:36:59;;;;;;;6.82;5.38;;;20.70;99.90;;;;;;6430910;23;20015;-75
2022/08/20 23:39:31;;;;;;;7.10;5.20;;;20.60;99.90;;;;;;6430726;23;20080;-74
2022/08/20 23:42:02;;;;;;;8.18;5.57;;;20.70;99.90;;;;;;6430556;23;20080;-74
2022/08/20 23:44:33;;;;;;;7.95;5.70;;;20.60;99.90;;;;;;6403926;23;20001;-74
2022/08/20 23:47:05;;;;;;;7.32;5.10;;;20.70;99.90;;;;;;6430397;23;20022;-74
2022/08/20 23:49:36;;;;;;;7.45;5.30;;;20.80;99.90;;;;;;6430744;23;20004;-74
2022/08/20 23:52:06;;;;;;;6.85;5.15;;;20.70;99.90;;;;;;6430169;23;20376;-74
2022/08/20 23:54:37;;;;;;;7.82;4.72;;;20.80;99.90;;;;;;6430402;23;20051;-74
2022/08/20 23:57:08;;;;;;;7.07;4.88;;;20.80;99.90;;;;;;6403908;23;20097;-76
2022/08/20 23:59:39;;;;;;;6.82;4.82;;;20.60;99.90;;;;;;6403081;23;20009;-73
